Time;durP1;ratioP1;P1;durP2;ratioP2;P2;SDS_P1;SDS_P2;PMS_P1;PMS_P2;Temp;Humidity;BMP_temperature;BMP_pressure;BME280_temperature;BME280_humidity;BME280_pressure;Samples;Min_cycle;Max_cycle;Signal;HPM_P1;HPM_P2
2022/07/10 00:02:05;;;;;;;11.27;4.07;;;23.20;99.90;;;;;;5289830;28;20024;-72
2022/07/10 00:04:38;;;;;;;7.15;3.53;;;23.20;99.90;;;;;;5289609;28;20038;-72
2022/07/10 00:07:18;;;;;;;8.48;3.63;;;23.20;99.90;;;;;;5289791;28;20477;-79
2022/07/10 00:09:57;;;;;;;10.48;3.45;;;23.20;99.90;;;;;;5289830;28;20027;-79
2022/07/10 00:12:38;;;;;;;12.98;3.55;;;23.20;99.90;;;;;;5289903;28;20055;-79
2022/07/10 00:15:09;;;;;;;7.28;3.00;;;23.20;99.90;;;;;;5289649;28;20020;-80
2022/07/10 00:17:40;;;;;;;12.77;3.67;;;23.30;99.90;;;;;;5271474;28;20024;-71
2022/07/10 00:20:12;;;;;;;10.85;3.20;;;23.30;99.90;;;;;;5289743;28;20016;-71
2022/07/10 00:23:00;;;;;;;11.95;3.80;;;23.20;99.90;;;;;;5289625;28;20089;-72
2022/07/10 00:25:47;;;;;;;7.10;2.45;;;23.20;99.90;;;;;;5289739;28;20039;-71
2022/07/10 00:28:25;;;;;;;6.18;2.03;;;22.50;99.90;;;;;;5271079;28;20028;-71
2022/07/10 00:31:04;;;;;;;6.25;1.95;;;22.30;99.90;;;;;;5289683;28;20536;-71
2022/07/10 00:33:37;;;;;;;7.88;1.75;;;22.10;99.90;;;;;;5289405;28;20336;-72
2022/07/10 00:36:07;;;;;;;6.63;1.73;;;21.90;99.90;;;;;;5289412;28;20027;-70
2022/07/10 00:38:38;;;;;;;3.55;1.50;;;21.80;99.90;;;;;;5289569;28;20022;-79
2022/07/10 00:41:09;;;;;;;3.63;1.38;;;21.60;99.90;;;;;;5289614;28;20106;-79
2022/07/10 00:43:57;;;;;;;4.15;1.35;;;21.60;99.90;;;;;;5271093;28;20430;-78
2022/07/10 00:46:30;;;;;;;2.72;1.10;;;21.80;99.90;;;;;;5289368;28;20077;-71
2022/07/10 00:49:00;;;;;;;3.85;1.30;;;21.60;99.90;;;;;;5289634;28;20356;-71
2022/07/10 00:51:33;;;;;;;2.53;1.23;;;21.60;99.90;;;;;;5291158;28;20077;-70
2022/07/10 00:54:05;;;;;;;2.95;1.27;;;21.70;99.90;;;;;;5274774;28;20391;-72
2022/07/10 00:56:36;;;;;;;2.03;1.10;;;21.70;99.90;;;;;;5293257;28;20395;-71
2022/07/10 00:59:09;;;;;;;6.07;1.23;;;21.40;99.90;;;;;;5274985;28;20024;-71
2022/07/10 01:01:40;;;;;;;1.85;1.20;;;21.30;99.90;;;;;;5293123;28;20102;-79
2022/07/10 01:04:11;;;;;;;1.88;1.02;;;21.30;99.90;;;;;;5292915;28;20110;-79
2022/07/10 01:06:42;;;;;;;2.20;1.10;;;21.30;99.90;;;;;;5292520;28;20036;-70
2022/07/10 01:09:12;;;;;;;3.88;1.10;;;21.20;99.90;;;;;;5292987;28;20077;-71
2022/07/10 01:11:44;;;;;;;2.03;1.10;;;21.30;99.90;;;;;;5274703;28;20024;-78
2022/07/10 01:14:17;;;;;;;2.13;0.93;;;21.10;99.90;;;;;;5292614;28;20023;-79
2022/07/10 01:16:49;;;;;;;2.03;0.88;;;20.90;99.90;;;;;;5292852;28;20098;-76
2022/07/10 01:19:20;;;;;;;2.40;1.00;;;20.70;99.90;;;;;;5292913;28;20069;-71
2022/07/10 01:21:51;;;;;;;7.43;1.20;;;20.60;99.90;;;;;;5292766;28;20371;-71
2022/07/10 01:24:22;;;;;;;6.25;1.40;;;20.50;99.90;;;;;;5292479;28;20050;-71
2022/07/10 01:26:52;;;;;;;5.72;1.50;;;20.70;99.90;;;;;;5292539;28;20023;-79
2022/07/10 01:29:23;;;;;;;3.85;1.48;;;20.80;99.90;;;;;;5274190;28;20023;-71
2022/07/10 01:31:54;;;;;;;4.68;1.00;;;20.80;99.90;;;;;;5292425;28;20468;-71
2022/07/10 01:34:25;;;;;;;7.72;1.55;;;20.50;99.90;;;;;;5292497;28;20027;-71
2022/07/10 01:36:56;;;;;;;4.05;1.27;;;20.50;99.90;;;;;;5292471;28;20020;-71
2022/07/10 01:39:26;;;;;;;5.28;1.15;;;20.40;99.90;;;;;;5292390;28;20580;-81
2022/07/10 01:41:57;;;;;;;3.95;1.50;;;20.60;99.90;;;;;;5292403;28;20019;-72
2022/07/10 01:44:28;;;;;;;3.22;1.42;;;20.50;99.90;;;;;;5292037;28;20044;-72
2022/07/10 01:46:59;;;;;;;6.47;1.13;;;20.40;99.90;;;;;;5292164;28;20547;-71
2022/07/10 01:49:31;;;;;;;2.55;1.42;;;20.40;99.90;;;;;;5292174;28;20020;-72
2022/07/10 01:52:02;;;;;;;4.70;1.33;;;20.40;99.90;;;;;;5291986;28;20016;-72
2022/07/10 01:54:33;;;;;;;5.15;1.50;;;20.30;99.90;;;;;;5291680;28;20398;-72
2022/07/10 01:57:04;;;;;;;7.97;1.70;;;20.20;99.90;;;;;;5291985;28;20024;-73
2022/07/10 01:59:35;;;;;;;4.28;1.30;;;20.30;99.90;;;;;;5291704;28;20130;-71
2022/07/10 02:02:06;;;;;;;3.67;1.40;;;20.40;99.90;;;;;;5291918;28;20091;-72
2022/07/10 02:04:43;;;;;;;3.88;1.30;;;20.60;99.90;;;;;;5291661;28;20035;-79
2022/07/10 02:07:17;;;;;;;5.47;1.02;;;20.50;99.90;;;;;;5291811;28;20459;-72
2022/07/10 02:09:48;;;;;;;2.25;1.20;;;20.60;99.90;;;;;;5291589;28;20107;-71
2022/07/10 02:12:19;;;;;;;3.33;1.25;;;20.40;99.90;;;;;;5291668;28;20027;-78
2022/07/10 02:14:49;;;;;;;3.05;1.38;;;20.10;99.90;;;;;;5291479;28;20027;-79
2022/07/10 02:17:20;;;;;;;4.55;1.42;;;20.40;99.90;;;;;;5291477;28;20031;-72
2022/07/10 02:19:51;;;;;;;2.45;1.50;;;20.50;99.90;;;;;;5291387;28;20024;-72
2022/07/10 02:22:22;;;;;;;7.10;2.10;;;20.60;99.90;;;;;;5291421;28;20042;-72
2022/07/10 02:24:53;;;;;;;3.53;1.50;;;20.40;99.90;;;;;;5291197;28;20043;-72
2022/07/10 02:27:24;;;;;;;4.25;1.52;;;20.40;99.90;;;;;;5291230;28;20019;-71
2022/07/10 02:29:54;;;;;;;5.72;1.58;;;20.40;99.90;;;;;;5291169;28;20023;-71
2022/07/10 02:32:25;;;;;;;5.40;1.63;;;20.10;99.90;;;;;;5290928;28;20516;-71
2022/07/10 02:34:56;;;;;;;3.40;1.40;;;20.30;99.90;;;;;;5290934;28;20085;-75
2022/07/10 02:37:27;;;;;;;2.95;1.55;;;20.20;99.90;;;;;;5291172;28;20095;-71
2022/07/10 02:39:57;;;;;;;4.43;1.38;;;20.30;99.90;;;;;;5291046;28;20015;-78
2022/07/10 02:42:28;;;;;;;6.50;2.05;;;20.30;99.90;;;;;;5290986;28;20030;-71
2022/07/10 02:44:59;;;;;;;11.70;3.78;;;20.50;99.90;;;;;;5290743;28;20362;-71
2022/07/10 02:47:30;;;;;;;14.38;3.63;;;21.50;99.90;;;;;;5291010;28;20434;-71
2022/07/10 03:08:38;;;;;;;16.00;3.78;;;22.60;99.90;;;;;;5308599;27;20468;-74
2022/07/10 03:11:09;;;;;;;14.85;4.15;;;23.00;99.90;;;;;;5308556;28;20491;-75
2022/07/10 03:13:40;;;;;;;11.02;3.60;;;22.90;99.90;;;;;;5282637;28;20054;-74
2022/07/10 03:16:11;;;;;;;12.70;3.17;;;23.00;99.90;;;;;;5287132;28;20027;-72
2022/07/10 03:18:42;;;;;;;11.02;3.70;;;23.00;99.90;;;;;;5287174;28;20035;-72
2022/07/10 03:21:13;;;;;;;8.50;3.30;;;23.00;99.90;;;;;;5268982;28;20031;-75
2022/07/10 03:23:43;;;;;;;15.80;3.67;;;23.00;99.90;;;;;;5286997;28;20370;-78
2022/07/10 03:26:14;;;;;;;9.82;3.58;;;23.00;99.90;;;;;;5286973;28;20027;-72
2022/07/10 03:28:45;;;;;;;11.98;3.38;;;23.00;99.90;;;;;;5286852;28;20028;-77
2022/07/10 03:31:16;;;;;;;9.50;2.85;;;23.00;99.90;;;;;;5295615;28;20023;-78
2022/07/10 03:33:47;;;;;;;13.27;3.30;;;23.00;99.90;;;;;;5308076;28;20370;-74
2022/07/10 03:36:18;;;;;;;10.93;3.20;;;23.00;99.90;;;;;;5307796;28;20532;-76
2022/07/10 03:38:49;;;;;;;10.73;3.33;;;23.00;99.90;;;;;;5307861;28;20462;-77
2022/07/10 03:41:20;;;;;;;9.65;2.80;;;23.00;99.90;;;;;;5307766;28;20069;-71
2022/07/10 03:43:51;;;;;;;11.45;3.63;;;23.00;99.90;;;;;;5289458;28;20382;-72
2022/07/10 03:46:22;;;;;;;18.60;3.42;;;23.00;99.90;;;;;;5307774;28;20024;-78
2022/07/10 03:48:53;;;;;;;8.80;3.20;;;23.00;99.90;;;;;;5307649;28;20031;-74
2022/07/10 03:51:23;;;;;;;11.05;4.07;;;22.90;99.90;;;;;;5307670;28;20461;-71
2022/07/10 03:53:54;;;;;;;14.20;3.17;;;23.00;99.90;;;;;;5289162;28;20030;-71
2022/07/10 03:59:14;;;;;;;6.88;2.47;;;21.90;99.90;;;;;;5307376;28;20163;-77
2022/07/10 04:01:45;;;;;;;10.50;2.70;;;21.60;99.90;;;;;;5307351;28;20024;-71
2022/07/10 04:04:16;;;;;;;8.32;2.38;;;21.50;99.90;;;;;;5307458;28;20093;-71
2022/07/10 04:06:47;;;;;;;8.18;2.65;;;21.30;99.90;;;;;;5307065;28;20047;-71
2022/07/10 04:09:18;;;;;;;11.90;2.97;;;21.30;99.90;;;;;;5276520;28;20027;-71
2022/07/10 04:11:48;;;;;;;6.55;2.67;;;21.10;99.90;;;;;;5293129;28;20024;-70
2022/07/10 04:14:19;;;;;;;12.18;3.00;;;20.90;99.90;;;;;;5293067;28;20115;-74
2022/07/10 04:16:50;;;;;;;9.32;2.55;;;20.70;99.90;;;;;;5274632;28;20032;-79
2022/07/10 04:19:24;;;;;;;9.45;3.13;;;20.80;99.90;;;;;;5292805;28;20024;-71
2022/07/10 04:21:55;;;;;;;7.50;2.75;;;20.80;99.90;;;;;;5292809;28;20038;-71
2022/07/10 04:24:25;;;;;;;18.95;3.40;;;20.80;99.90;;;;;;5292838;28;20024;-73
2022/07/10 04:26:56;;;;;;;16.23;4.18;;;20.80;99.90;;;;;;5292691;28;20110;-73
2022/07/10 04:29:27;;;;;;;7.82;3.55;;;20.30;99.90;;;;;;5292486;28;20027;-73
2022/07/10 04:31:58;;;;;;;16.42;4.40;;;19.90;99.90;;;;;;5292574;28;20037;-75
2022/07/10 04:34:29;;;;;;;10.05;3.92;;;19.80;99.90;;;;;;5274305;28;20030;-74
2022/07/10 04:37:00;;;;;;;27.45;6.95;;;19.40;99.90;;;;;;5292132;28;20372;-79
2022/07/10 04:39:30;;;;;;;17.23;6.50;;;19.50;99.90;;;;;;5292525;28;20030;-72
2022/07/10 04:42:03;;;;;;;12.27;5.10;;;19.10;99.90;;;;;;5292092;28;20024;-79
2022/07/10 04:44:34;;;;;;;13.30;4.80;;;19.00;99.90;;;;;;5292382;28;20015;-76
2022/07/10 04:47:06;;;;;;;16.27;6.20;;;19.20;99.90;;;;;;5292338;28;20035;-72
2022/07/10 04:49:36;;;;;;;20.90;7.07;;;19.30;99.90;;;;;;5292433;28;20489;-73
2022/07/10 04:52:07;;;;;;;17.40;7.03;;;19.30;99.90;;;;;;5292266;28;20047;-74
2022/07/10 04:54:38;;;;;;;17.55;6.97;;;19.60;99.90;;;;;;5292256;28;20172;-73
2022/07/10 04:57:09;;;;;;;12.88;4.97;;;19.20;99.90;;;;;;5292153;28;20042;-72
2022/07/10 04:59:40;;;;;;;11.35;5.47;;;18.80;99.90;;;;;;5292067;28;20097;-74
2022/07/10 05:02:11;;;;;;;8.55;4.82;;;19.00;99.90;;;;;;5292074;28;20124;-72
2022/07/10 05:04:42;;;;;;;18.40;6.28;;;19.30;99.90;;;;;;5292045;28;20095;-73
2022/07/10 05:07:14;;;;;;;9.63;4.90;;;19.30;99.90;;;;;;5291653;28;20040;-71
2022/07/10 05:09:45;;;;;;;9.80;4.45;;;18.70;99.90;;;;;;5291643;28;20020;-76
2022/07/10 05:12:15;;;;;;;11.27;4.97;;;18.70;99.90;;;;;;5291684;28;20034;-72
2022/07/10 05:14:46;;;;;;;11.32;5.05;;;18.60;99.90;;;;;;5291680;28;20023;-76
2022/07/10 05:17:17;;;;;;;12.73;6.85;;;18.80;99.90;;;;;;5291701;28;20063;-74
2022/07/10 05:19:48;;;;;;;18.27;6.63;;;18.90;99.90;;;;;;5290654;28;20034;-74
2022/07/10 05:22:19;;;;;;;17.08;7.65;;;19.00;99.90;;;;;;5273587;28;20012;-72
2022/07/10 05:24:50;;;;;;;13.25;5.40;;;18.70;99.90;;;;;;5291573;28;20026;-73
2022/07/10 05:27:21;;;;;;;8.50;5.28;;;18.50;99.90;;;;;;5273263;28;20467;-73
2022/07/10 05:29:52;;;;;;;7.10;4.70;;;18.50;99.90;;;;;;5273224;28;20023;-73
2022/07/10 05:32:25;;;;;;;19.05;6.15;;;18.70;99.90;;;;;;5291380;28;20018;-74
2022/07/10 05:34:58;;;;;;;12.75;6.50;;;18.70;99.90;;;;;;5291368;28;20335;-72
2022/07/10 05:37:29;;;;;;;8.77;4.68;;;18.90;99.90;;;;;;5291048;28;20073;-75
2022/07/10 05:40:00;;;;;;;6.75;4.40;;;18.60;99.90;;;;;;5290937;28;20059;-74
2022/07/10 05:42:31;;;;;;;8.70;4.07;;;18.50;99.90;;;;;;5272986;28;20096;-72
2022/07/10 05:45:02;;;;;;;9.88;5.43;;;18.30;99.90;;;;;;5291101;28;20062;-73
2022/07/10 05:47:33;;;;;;;8.20;5.38;;;18.30;99.90;;;;;;5290969;28;20069;-72
2022/07/10 05:50:04;;;;;;;9.68;5.20;;;18.40;99.90;;;;;;5291009;28;20088;-72
2022/07/10 05:52:35;;;;;;;4.40;3.47;;;18.80;99.90;;;;;;5290897;28;20020;-73
2022/07/10 05:55:07;;;;;;;4.53;3.53;;;18.70;99.90;;;;;;5290983;28;20028;-75
2022/07/10 05:57:39;;;;;;;6.15;4.20;;;18.90;99.90;;;;;;5271758;28;20035;-75
2022/07/10 06:00:10;;;;;;;5.47;3.80;;;18.50;99.90;;;;;;5290871;28;20098;-74
2022/07/10 06:02:41;;;;;;;4.95;3.58;;;18.80;99.90;;;;;;5290784;28;20027;-74
2022/07/10 06:05:12;;;;;;;9.70;4.72;;;18.70;99.90;;;;;;5290821;28;20080;-72
2022/07/10 06:07:42;;;;;;;10.45;4.53;;;18.70;99.90;;;;;;5290307;28;20059;-72
2022/07/10 06:10:14;;;;;;;10.27;4.93;;;18.50;99.90;;;;;;5290905;28;20020;-73
2022/07/10 06:12:45;;;;;;;9.18;4.40;;;18.80;99.90;;;;;;5272470;28;20497;-75
2022/07/10 06:15:16;;;;;;;6.38;3.50;;;18.90;99.90;;;;;;5272472;28;20024;-72
2022/07/10 06:17:47;;;;;;;6.00;3.60;;;18.60;99.90;;;;;;5290709;28;20039;-72
2022/07/10 06:20:17;;;;;;;5.32;4.13;;;18.70;99.90;;;;;;5272093;28;20026;-75
2022/07/10 06:22:48;;;;;;;7.47;3.75;;;18.60;99.90;;;;;;5286274;28;20069;-73
2022/07/10 06:39:31;;;;;;;6.60;3.47;;;18.80;99.90;;;;;;5265881;28;20445;-71
2022/07/10 06:42:07;;;;;;;3.72;2.97;;;18.60;99.90;;;;;;5265936;28;20024;-72
2022/07/10 06:44:38;;;;;;;4.55;2.75;;;18.70;99.90;;;;;;5265948;28;20063;-72
2022/07/10 07:00:33;;;;;;;4.05;1.92;;;18.90;99.90;;;;;;5329636;27;20381;-75
2022/07/10 07:03:04;;;;;;;3.75;2.08;;;18.90;99.90;;;;;;5329621;27;20031;-75
2022/07/10 07:05:36;;;;;;;3.80;2.00;;;18.80;99.90;;;;;;5276472;27;20091;-75
2022/07/10 07:08:07;;;;;;;6.82;2.17;;;18.70;99.90;;;;;;5329388;27;20121;-74
2022/07/10 07:10:38;;;;;;;5.65;2.10;;;18.50;99.90;;;;;;5329179;27;20398;-74
2022/07/10 07:13:09;;;;;;;3.45;1.85;;;18.50;99.90;;;;;;5329559;27;20019;-73
2022/07/10 07:15:46;;;;;;;2.80;1.95;;;18.80;99.90;;;;;;5328922;27;20076;-74
2022/07/10 07:18:17;;;;;;;3.33;2.42;;;18.70;99.90;;;;;;5329509;27;20019;-74
2022/07/10 07:23:37;;;;;;;5.45;2.03;;;18.80;99.90;;;;;;5329523;27;20030;-72
2022/07/10 07:26:08;;;;;;;5.90;2.42;;;18.70;99.90;;;;;;5329108;27;20027;-75
2022/07/10 07:28:38;;;;;;;4.07;1.80;;;18.60;99.90;;;;;;5329010;27;20043;-73
2022/07/10 07:31:09;;;;;;;2.67;2.38;;;18.40;99.90;;;;;;5329161;27;20031;-74
2022/07/10 07:33:40;;;;;;;1.98;1.55;;;18.70;99.90;;;;;;5329191;27;20050;-75
2022/07/10 07:36:11;;;;;;;2.75;2.00;;;18.80;99.90;;;;;;5329363;27;20090;-75
2022/07/10 07:38:42;;;;;;;3.83;2.45;;;18.70;99.90;;;;;;5329241;27;20021;-75
2022/07/10 07:41:12;;;;;;;2.38;2.15;;;18.70;99.90;;;;;;5327586;27;20458;-75
2022/07/10 07:43:43;;;;;;;2.05;1.85;;;19.00;99.90;;;;;;5327540;27;20065;-74
2022/07/10 07:46:14;;;;;;;5.07;2.63;;;18.80;99.90;;;;;;5327625;27;20026;-76
2022/07/10 07:48:45;;;;;;;11.00;2.33;;;19.00;99.90;;;;;;5328267;27;20039;-74
2022/07/10 07:51:16;;;;;;;3.92;2.40;;;19.20;99.90;;;;;;5328479;27;20076;-73
2022/07/10 07:53:47;;;;;;;2.80;2.60;;;19.20;99.90;;;;;;5328639;27;20027;-75
2022/07/10 07:56:18;;;;;;;3.72;2.75;;;19.30;99.90;;;;;;5328450;27;20060;-75
2022/07/10 07:58:49;;;;;;;3.20;2.72;;;19.20;99.90;;;;;;5326170;27;20050;-75
2022/07/10 08:01:20;;;;;;;7.43;3.17;;;19.10;99.90;;;;;;5313747;27;20134;-75
2022/07/10 08:03:50;;;;;;;4.28;3.17;;;19.40;99.90;;;;;;5312950;27;20035;-73
2022/07/10 08:06:21;;;;;;;7.43;2.95;;;19.30;99.90;;;;;;5312764;27;20030;-75
2022/07/10 08:08:52;;;;;;;4.15;3.35;;;19.30;99.90;;;;;;5314205;27;20031;-76
2022/07/10 08:22:53;;;;;;;5.78;4.13;;;19.50;99.90;;;;;;5308453;27;20433;-75
2022/07/10 08:25:24;;;;;;;6.05;4.88;;;19.60;99.90;;;;;;5308310;28;20347;-75
2022/07/10 08:28:01;;;;;;;8.15;4.68;;;19.60;99.90;;;;;;5290026;28;20076;-75
2022/07/10 08:30:32;;;;;;;9.45;4.60;;;19.80;99.90;;;;;;5308330;28;20079;-75
2022/07/10 10:16:54;;;;;;;10.30;3.28;;;22.50;99.90;;;;;;5265445;28;20384;-75
2022/07/10 10:22:17;;;;;;;10.70;3.38;;;23.30;99.90;;;;;;5265439;28;20043;-75
2022/07/10 10:24:49;;;;;;;7.38;2.90;;;23.40;99.90;;;;;;5265269;28;20103;-75
2022/07/10 10:27:21;;;;;;;9.32;3.20;;;23.60;99.90;;;;;;5265370;28;20378;-75
2022/07/10 10:29:52;;;;;;;8.75;3.17;;;23.80;99.90;;;;;;5265226;28;20406;-75
2022/07/10 10:32:23;;;;;;;10.13;3.63;;;23.90;99.90;;;;;;5247193;28;20020;-75
2022/07/10 10:34:57;;;;;;;10.38;3.65;;;24.10;99.90;;;;;;5265691;28;20036;-75
2022/07/10 10:37:37;;;;;;;10.88;3.13;;;24.20;99.90;;;;;;5263111;28;20028;-75
2022/07/10 10:40:10;;;;;;;6.95;3.17;;;23.90;99.90;;;;;;5252122;28;20024;-75
2022/07/10 10:42:43;;;;;;;7.13;3.00;;;24.20;99.90;;;;;;5260247;28;20464;-75
2022/07/10 10:45:31;;;;;;;10.23;2.90;;;24.20;99.90;;;;;;5252772;28;20123;-75
2022/07/10 10:48:10;;;;;;;8.38;3.22;;;24.30;99.90;;;;;;5243957;28;20024;-75
2022/07/10 10:50:49;;;;;;;4.83;2.70;;;24.10;99.90;;;;;;5243983;28;20437;-75
2022/07/10 10:53:30;;;;;;;7.50;3.15;;;24.20;99.90;;;;;;5243540;28;20119;-75
2022/07/10 10:56:04;;;;;;;6.82;3.30;;;24.20;99.90;;;;;;5234913;28;20052;-75
2022/07/10 10:58:39;;;;;;;9.82;3.50;;;24.30;99.90;;;;;;5229989;28;20032;-75
2022/07/10 11:01:23;;;;;;;5.85;2.75;;;24.30;99.90;;;;;;5229810;28;20024;-75
2022/07/10 11:04:09;;;;;;;10.85;3.25;;;24.10;99.90;;;;;;5230180;28;20021;-74
2022/07/10 11:06:48;;;;;;;7.53;3.17;;;24.10;99.90;;;;;;5230228;28;20083;-74
2022/07/10 11:09:29;;;;;;;6.30;2.70;;;24.00;99.90;;;;;;5230129;28;20072;-74
2022/07/10 11:12:01;;;;;;;7.22;3.00;;;24.20;99.90;;;;;;5230082;28;20099;-75
2022/07/10 11:14:47;;;;;;;7.75;2.80;;;24.00;99.90;;;;;;5229646;28;20048;-74
2022/07/10 11:17:18;;;;;;;8.55;3.15;;;24.20;99.90;;;;;;5230068;28;20029;-75
2022/07/10 11:19:53;;;;;;;8.43;3.10;;;24.60;99.90;;;;;;5230072;28;20079;-74
2022/07/10 11:23:01;;;;;;;6.03;2.78;;;24.70;99.90;;;;;;5241080;28;20025;-75
2022/07/10 11:26:07;;;;;;;4.60;2.65;;;24.60;99.90;;;;;;5229896;28;20103;-74
2022/07/10 11:28:43;;;;;;;7.28;2.72;;;24.60;99.90;;;;;;5229728;28;20021;-76
2022/07/10 11:31:14;;;;;;;6.70;3.13;;;24.90;99.90;;;;;;5229722;28;20029;-76
2022/07/10 11:33:48;;;;;;;10.82;3.13;;;25.20;99.90;;;;;;5229533;28;20079;-76
2022/07/10 11:36:21;;;;;;;8.48;2.90;;;25.00;99.90;;;;;;5229409;28;20068;-77
2022/07/10 11:39:00;;;;;;;12.32;3.47;;;24.90;99.90;;;;;;5229576;28;20021;-75
2022/07/10 11:41:32;;;;;;;7.82;2.38;;;25.40;99.90;;;;;;5229500;28;20021;-76
2022/07/10 11:44:03;;;;;;;9.25;2.60;;;25.20;99.90;;;;;;5229386;28;20400;-76
2022/07/10 11:46:35;;;;;;;4.25;2.50;;;25.10;99.90;;;;;;5229435;28;20021;-75
2022/07/10 11:49:08;;;;;;;6.65;2.65;;;25.00;99.90;;;;;;5229282;28;20025;-76
2022/07/10 11:51:39;;;;;;;7.80;2.70;;;25.70;99.90;;;;;;5229245;28;20053;-76
2022/07/10 11:54:18;;;;;;;5.50;2.42;;;25.70;99.90;;;;;;5229206;28;20024;-76
2022/07/10 11:56:52;;;;;;;8.23;2.83;;;25.40;99.90;;;;;;5229224;28;20464;-76
2022/07/10 11:59:27;;;;;;;5.20;2.30;;;25.60;99.90;;;;;;5229378;28;20078;-76
2022/07/10 12:01:58;;;;;;;8.38;2.75;;;25.60;99.90;;;;;;5229172;28;20528;-76
2022/07/10 12:04:31;;;;;;;4.05;2.20;;;25.60;99.90;;;;;;5211372;28;20108;-76
2022/07/10 12:07:02;;;;;;;6.15;2.03;;;25.30;99.90;;;;;;5227965;28;20029;-76
2022/07/10 12:09:36;;;;;;;11.38;2.70;;;25.40;99.90;;;;;;5228936;28;20044;-77
2022/07/10 12:12:08;;;;;;;4.65;2.20;;;25.30;99.90;;;;;;5228927;28;20052;-76
2022/07/10 12:14:39;;;;;;;5.45;2.35;;;25.40;99.90;;;;;;5228424;28;20049;-76
2022/07/10 12:17:12;;;;;;;6.13;2.20;;;25.70;99.90;;;;;;5211087;28;20047;-75
2022/07/10 12:19:43;;;;;;;5.97;2.05;;;25.60;99.90;;;;;;5228993;28;20063;-75
2022/07/10 12:22:15;;;;;;;4.45;2.15;;;25.40;99.90;;;;;;5228839;28;20027;-75
2022/07/10 12:24:46;;;;;;;6.20;2.00;;;25.50;99.90;;;;;;5210934;28;20033;-75
2022/07/10 12:27:39;;;;;;;8.13;2.47;;;25.30;99.90;;;;;;5248591;28;20070;-76
2022/07/10 12:30:10;;;;;;;6.55;2.28;;;25.50;99.90;;;;;;5249146;28;20056;-76
2022/07/10 12:32:41;;;;;;;5.07;1.90;;;25.50;99.90;;;;;;5231633;28;20032;-77
2022/07/10 12:35:15;;;;;;;4.88;2.08;;;25.80;99.90;;;;;;5231236;28;20037;-75
2022/07/10 12:37:49;;;;;;;5.85;2.15;;;25.80;99.90;;;;;;5249179;28;20032;-76
2022/07/10 12:40:33;;;;;;;6.95;2.00;;;25.60;99.90;;;;;;5249250;28;20017;-78
2022/07/10 12:43:05;;;;;;;4.68;2.10;;;25.60;99.90;;;;;;5231093;28;20028;-75
2022/07/10 12:45:36;;;;;;;8.55;2.30;;;25.50;99.90;;;;;;5248947;28;20021;-75
2022/07/10 12:48:20;;;;;;;9.25;2.45;;;26.00;99.90;;;;;;5248924;28;20032;-76
2022/07/10 12:50:51;;;;;;;6.13;2.50;;;25.90;99.90;;;;;;5249082;28;20020;-76
2022/07/10 12:53:22;;;;;;;8.73;2.38;;;25.80;99.90;;;;;;5248937;28;20021;-76
2022/07/10 12:55:53;;;;;;;5.82;2.10;;;25.70;99.90;;;;;;5248434;28;20032;-75
2022/07/10 12:58:24;;;;;;;5.75;2.50;;;25.80;99.90;;;;;;5248969;28;20020;-76
2022/07/10 13:00:57;;;;;;;7.63;2.58;;;26.10;99.90;;;;;;5248725;28;20027;-76
2022/07/10 13:03:29;;;;;;;7.78;2.58;;;25.70;99.90;;;;;;5248709;28;20028;-76
2022/07/10 13:06:01;;;;;;;6.85;2.03;;;26.10;99.90;;;;;;5230529;28;20028;-76
2022/07/10 13:08:46;;;;;;;7.05;2.15;;;26.10;99.90;;;;;;5247958;28;20032;-76
2022/07/10 13:11:17;;;;;;;5.53;1.77;;;26.00;99.90;;;;;;5248711;28;20099;-76
2022/07/10 13:13:49;;;;;;;5.68;2.40;;;26.20;99.90;;;;;;5230561;28;20046;-75
2022/07/10 13:16:22;;;;;;;4.53;2.53;;;26.20;99.90;;;;;;5248138;28;20400;-75
2022/07/10 13:18:54;;;;;;;9.32;2.30;;;26.20;99.90;;;;;;5230245;28;20039;-75
2022/07/10 13:21:24;;;;;;;5.30;2.00;;;26.50;99.90;;;;;;5248608;28;20024;-76
2022/07/10 13:23:55;;;;;;;5.55;2.00;;;26.40;99.90;;;;;;5248411;28;20036;-76
2022/07/10 13:26:29;;;;;;;3.20;2.17;;;26.40;99.90;;;;;;5248208;28;20365;-75
2022/07/10 13:29:00;;;;;;;5.93;2.58;;;26.50;99.90;;;;;;5248164;28;20039;-75
2022/07/10 13:31:31;;;;;;;7.40;2.13;;;26.50;99.90;;;;;;5248255;28;20096;-75
2022/07/10 13:34:02;;;;;;;8.98;2.15;;;26.90;99.90;;;;;;5248279;28;20040;-75
2022/07/10 13:36:32;;;;;;;4.28;2.03;;;26.60;99.90;;;;;;5248230;28;20028;-75
2022/07/10 13:39:03;;;;;;;6.40;2.05;;;26.30;99.90;;;;;;5248258;28;20107;-75
2022/07/10 13:41:34;;;;;;;4.40;2.15;;;26.40;99.90;;;;;;5248513;28;20028;-75
2022/07/10 13:44:05;;;;;;;6.30;2.20;;;26.20;99.90;;;;;;5248266;28;20033;-75
2022/07/10 13:46:37;;;;;;;6.95;1.80;;;26.50;99.90;;;;;;5247964;28;20023;-75
2022/07/10 13:49:08;;;;;;;4.43;1.75;;;26.70;99.90;;;;;;5248093;28;20032;-75
2022/07/10 13:51:39;;;;;;;3.95;1.80;;;26.30;99.90;;;;;;5248187;28;20024;-75
2022/07/10 13:54:10;;;;;;;5.10;1.95;;;26.80;99.90;;;;;;5247857;28;20033;-75
2022/07/10 13:56:43;;;;;;;8.27;2.38;;;26.10;99.90;;;;;;5247927;28;20428;-75
2022/07/10 13:59:13;;;;;;;3.53;1.83;;;27.00;99.90;;;;;;5248199;28;20031;-76
2022/07/10 14:01:44;;;;;;;7.20;2.30;;;26.50;99.90;;;;;;5248184;28;20020;-76
2022/07/10 14:04:15;;;;;;;4.03;2.05;;;26.60;99.90;;;;;;5247752;28;20029;-75
2022/07/10 14:06:46;;;;;;;6.53;2.13;;;27.10;99.90;;;;;;5248035;28;20047;-76
2022/07/10 14:09:18;;;;;;;6.40;2.05;;;26.70;99.90;;;;;;5230103;28;20479;-75
2022/07/10 14:11:50;;;;;;;4.53;1.80;;;26.80;99.90;;;;;;5253353;28;20487;-76
2022/07/10 14:14:22;;;;;;;3.35;1.70;;;27.10;99.90;;;;;;5260815;28;20066;-75
2022/07/10 14:16:53;;;;;;;6.00;1.67;;;27.10;99.90;;;;;;5250637;28;20055;-74
2022/07/10 14:19:23;;;;;;;5.35;1.70;;;27.40;99.90;;;;;;5268805;28;20032;-77
2022/07/10 14:21:54;;;;;;;8.75;1.60;;;27.30;99.90;;;;;;5262370;28;20501;-75
2022/07/10 14:24:25;;;;;;;4.50;1.63;;;26.90;99.90;;;;;;5247489;28;20158;-76
2022/07/10 14:26:56;;;;;;;4.40;2.03;;;27.00;99.90;;;;;;5247849;28;20021;-76
2022/07/10 14:29:27;;;;;;;5.85;1.90;;;27.10;99.90;;;;;;5247902;28;20029;-76
2022/07/10 14:32:01;;;;;;;3.38;1.70;;;26.90;99.90;;;;;;5250938;28;20387;-75
2022/07/10 14:34:32;;;;;;;8.43;1.95;;;26.80;99.90;;;;;;5251465;28;20480;-75
2022/07/10 14:37:03;;;;;;;6.35;2.20;;;26.30;99.90;;;;;;5233828;28;20028;-76
2022/07/10 14:39:37;;;;;;;4.75;1.80;;;26.70;99.90;;;;;;5251510;28;20028;-75
2022/07/10 14:42:09;;;;;;;8.20;1.77;;;27.10;99.90;;;;;;5251239;28;20038;-76
2022/07/10 14:44:40;;;;;;;3.90;1.65;;;27.30;99.90;;;;;;5233146;28;20032;-75
2022/07/10 14:47:11;;;;;;;6.18;1.90;;;27.00;99.90;;;;;;5251519;28;20073;-75
2022/07/10 14:49:42;;;;;;;3.40;1.80;;;27.00;99.90;;;;;;5251036;28;20039;-75
2022/07/10 14:52:14;;;;;;;6.90;1.90;;;27.20;99.90;;;;;;5251068;28;20036;-75
2022/07/10 14:54:45;;;;;;;8.38;2.00;;;26.60;99.90;;;;;;5250999;28;20036;-75
2022/07/10 14:57:16;;;;;;;4.68;2.00;;;26.70;99.90;;;;;;5235430;28;20035;-75
2022/07/10 14:59:47;;;;;;;3.40;1.67;;;26.70;99.90;;;;;;5230281;28;20032;-74
2022/07/10 15:02:18;;;;;;;7.90;1.60;;;26.90;99.90;;;;;;5230205;28;20033;-74
2022/07/10 15:04:49;;;;;;;7.95;1.85;;;26.30;99.90;;;;;;5230174;28;20021;-74
2022/07/10 15:07:20;;;;;;;4.03;1.58;;;26.50;99.90;;;;;;5230189;28;20108;-74
2022/07/10 15:09:51;;;;;;;4.40;1.73;;;26.20;99.90;;;;;;5230144;28;20029;-74
2022/07/10 15:12:22;;;;;;;10.13;2.40;;;26.40;99.90;;;;;;5230142;28;20028;-74
2022/07/10 15:14:53;;;;;;;7.03;2.25;;;25.90;99.90;;;;;;5229760;28;20138;-74
2022/07/10 15:41:34;;;;;;;4.10;2.20;;;25.10;99.90;;;;;;5307990;27;20505;-75
2022/07/10 15:44:05;;;;;;;6.20;2.42;;;23.30;99.90;;;;;;5285132;28;20035;-77
2022/07/10 15:46:36;;;;;;;6.43;2.85;;;23.50;99.90;;;;;;5287054;28;20459;-75
2022/07/10 15:49:07;;;;;;;4.97;2.90;;;23.50;99.90;;;;;;5287395;28;20028;-77
2022/07/10 15:51:39;;;;;;;4.47;2.42;;;23.80;99.90;;;;;;5287097;28;20028;-77
2022/07/10 15:54:09;;;;;;;7.32;2.55;;;23.50;99.90;;;;;;5302887;27;20020;-77
2022/07/10 15:56:41;;;;;;;9.68;2.78;;;23.40;99.90;;;;;;5286255;28;20024;-74
2022/07/10 15:59:12;;;;;;;4.85;2.60;;;23.50;99.90;;;;;;5287224;28;20398;-78
2022/07/10 17:13:36;;;;;;;7.53;3.75;;;20.90;99.90;;;;;;4066937;27;84888;-78
2022/07/10 17:16:07;;;;;;;23.30;4.72;;;20.60;99.90;;;;;;5244668;28;20036;-72
2022/07/10 17:18:38;;;;;;;14.45;4.78;;;20.60;99.90;;;;;;5234878;28;20104;-73
2022/07/10 17:21:14;;;;;;;13.10;4.13;;;20.70;99.90;;;;;;5245650;28;20037;-75
2022/07/10 17:23:45;;;;;;;12.40;4.78;;;20.60;99.90;;;;;;5244187;28;20384;-73
2022/07/10 17:26:16;;;;;;;9.63;4.57;;;20.40;99.90;;;;;;5244308;28;20032;-73
2022/07/10 17:28:47;;;;;;;11.88;5.05;;;20.40;99.90;;;;;;5235565;28;20589;-73
2022/07/10 17:31:17;;;;;;;11.10;3.88;;;20.70;99.90;;;;;;5226466;28;20056;-76
2022/07/10 17:33:48;;;;;;;12.68;3.95;;;21.00;99.90;;;;;;5244450;28;20035;-76
2022/07/10 17:36:19;;;;;;;16.25;4.30;;;21.20;99.90;;;;;;5236367;28;20037;-73
2022/07/10 17:38:50;;;;;;;13.50;4.28;;;20.40;99.90;;;;;;5224122;28;20033;-76